Time;durP1;ratioP1;P1;durP2;ratioP2;P2;SDS_P1;SDS_P2;PMS_P1;PMS_P2;Temp;Humidity;BMP_temperature;BMP_pressure;BME280_temperature;BME280_humidity;BME280_pressure;Samples;Min_cycle;Max_cycle;Signal;HPM_P1;HPM_P2
2023/08/07 00:02:04;;;;;;;1.97;1.57;;;16.30;69.00;;;;;;5051345;28;20208;-44
2023/08/07 00:04:30;;;;;;;2.17;1.77;;;16.20;69.60;;;;;;5052384;28;20223;-41
2023/08/07 00:06:55;;;;;;;3.50;1.53;;;16.20;69.70;;;;;;5048532;28;20189;-43
2023/08/07 00:09:21;;;;;;;1.70;1.40;;;16.20;69.30;;;;;;5044724;28;20193;-42
2023/08/07 00:11:46;;;;;;;1.60;1.50;;;16.30;69.50;;;;;;5044204;28;20272;-43
2023/08/07 00:14:12;;;;;;;3.13;1.80;;;16.30;68.40;;;;;;5046109;28;20716;-45
2023/08/07 00:16:37;;;;;;;4.67;2.53;;;16.10;68.60;;;;;;5048316;28;20628;-42
2023/08/07 00:19:03;;;;;;;3.13;1.80;;;16.20;68.90;;;;;;5043168;28;20664;-42
2023/08/07 00:21:29;;;;;;;3.10;1.67;;;16.00;68.50;;;;;;5050567;28;20199;-43
2023/08/07 00:23:54;;;;;;;2.07;1.77;;;16.20;69.10;;;;;;5052221;28;20236;-42
2023/08/07 00:26:21;;;;;;;1.73;1.60;;;16.30;68.80;;;;;;5047664;28;20189;-44
2023/08/07 00:28:46;;;;;;;2.67;1.70;;;16.40;67.40;;;;;;5047669;28;20310;-47
2023/08/07 00:31:12;;;;;;;2.53;1.40;;;16.20;68.70;;;;;;5051292;28;20577;-47
2023/08/07 00:33:38;;;;;;;3.23;1.47;;;16.30;68.20;;;;;;5050483;28;20237;-47
2023/08/07 00:36:04;;;;;;;2.23;1.63;;;16.20;68.00;;;;;;5043669;28;20696;-44
2023/08/07 00:38:29;;;;;;;3.37;1.50;;;16.10;68.10;;;;;;5047242;28;20192;-45
2023/08/07 00:40:55;;;;;;;1.77;1.63;;;16.20;68.30;;;;;;5050908;28;20782;-44
2023/08/07 00:43:21;;;;;;;1.40;1.30;;;16.20;68.10;;;;;;5047460;28;20271;-45
2023/08/07 00:45:47;;;;;;;4.10;1.80;;;16.50;67.70;;;;;;5044737;28;20206;-46
2023/08/07 00:48:14;;;;;;;6.93;1.70;;;16.60;66.80;;;;;;5052477;28;20196;-42
2023/08/07 00:50:42;;;;;;;8.43;2.13;;;16.60;66.50;;;;;;5051511;28;20439;-43
2023/08/07 00:53:08;;;;;;;3.50;1.73;;;16.60;66.50;;;;;;5046517;28;20431;-42
2023/08/07 00:55:35;;;;;;;2.40;1.30;;;16.30;66.00;;;;;;5049781;28;20948;-45
2023/08/07 00:58:00;;;;;;;3.00;1.57;;;16.50;66.60;;;;;;5053917;28;20438;-43
2023/08/07 01:00:28;;;;;;;2.77;1.63;;;16.30;65.60;;;;;;5054180;28;20895;-43
2023/08/07 01:02:55;;;;;;;5.03;1.47;;;16.20;67.20;;;;;;5052772;28;20217;-43
2023/08/07 01:05:22;;;;;;;2.67;1.53;;;16.20;67.10;;;;;;5051615;28;21010;-45
2023/08/07 01:07:48;;;;;;;2.40;1.17;;;16.30;66.60;;;;;;5053886;28;20447;-43
2023/08/07 01:10:14;;;;;;;3.83;1.57;;;16.40;65.90;;;;;;5051044;28;20520;-42
2023/08/07 01:12:51;;;;;;;2.10;1.40;;;16.30;65.40;;;;;;5054614;28;20431;-42
2023/08/07 01:15:24;;;;;;;2.47;1.70;;;16.10;65.00;;;;;;5053854;28;20426;-42
2023/08/07 01:17:52;;;;;;;2.60;1.40;;;16.20;65.30;;;;;;5053321;28;20435;-43
2023/08/07 01:20:18;;;;;;;2.47;1.70;;;16.20;64.90;;;;;;5051761;28;20842;-42
2023/08/07 01:22:43;;;;;;;2.40;1.43;;;16.20;64.40;;;;;;5049049;28;20478;-44
2023/08/07 01:25:09;;;;;;;2.73;1.63;;;16.00;65.00;;;;;;5047938;28;20519;-42
2023/08/07 01:27:48;;;;;;;2.40;1.60;;;15.90;65.50;;;;;;5052961;28;20193;-43
2023/08/07 01:30:42;;;;;;;1.50;1.40;;;16.00;65.50;;;;;;5049073;28;20207;-42
2023/08/07 01:33:17;;;;;;;4.50;1.50;;;16.20;65.50;;;;;;5050671;28;20934;-42
2023/08/07 01:35:56;;;;;;;3.80;1.80;;;16.30;65.00;;;;;;5047564;28;20456;-42
2023/08/07 01:38:25;;;;;;;4.00;1.80;;;16.30;64.90;;;;;;5052058;28;20454;-43
2023/08/07 01:40:52;;;;;;;5.40;1.70;;;16.30;64.60;;;;;;5045793;28;20533;-42
2023/08/07 01:43:19;;;;;;;2.13;1.60;;;16.40;64.10;;;;;;5046376;28;20486;-43
2023/08/07 01:45:45;;;;;;;2.60;1.80;;;16.50;63.70;;;;;;5043978;28;20455;-41
2023/08/07 01:48:11;;;;;;;2.73;1.70;;;16.40;63.10;;;;;;5041840;28;20431;-44
2023/08/07 01:50:38;;;;;;;3.80;1.80;;;16.50;62.70;;;;;;5046689;28;20505;-43
2023/08/07 01:53:03;;;;;;;2.83;1.57;;;16.50;62.90;;;;;;5047333;28;20553;-43
2023/08/07 01:55:29;;;;;;;2.70;1.40;;;16.40;63.10;;;;;;5046329;28;20919;-44
2023/08/07 01:57:55;;;;;;;3.37;1.47;;;16.40;63.00;;;;;;5040709;28;20396;-42
2023/08/07 02:00:20;;;;;;;1.87;1.67;;;16.30;62.60;;;;;;5042187;28;20199;-43
2023/08/07 02:02:46;;;;;;;1.97;1.70;;;16.20;62.70;;;;;;5039665;28;20315;-42
2023/08/07 02:05:13;;;;;;;2.97;1.47;;;16.20;62.90;;;;;;5041436;28;20513;-42
2023/08/07 02:07:39;;;;;;;1.97;1.60;;;16.30;62.60;;;;;;5039327;28;20652;-42
2023/08/07 02:10:04;;;;;;;4.20;1.60;;;16.10;62.50;;;;;;5046015;28;20441;-42
2023/08/07 02:12:32;;;;;;;5.33;1.50;;;15.90;62.50;;;;;;5046009;28;20220;-43
2023/08/07 02:14:58;;;;;;;7.07;2.00;;;16.10;62.90;;;;;;5043554;28;20205;-42
2023/08/07 02:17:25;;;;;;;3.33;1.57;;;16.20;62.60;;;;;;5048377;28;20438;-43
2023/08/07 02:19:51;;;;;;;6.23;1.73;;;16.10;62.00;;;;;;5052778;28;20459;-42
2023/08/07 02:22:16;;;;;;;8.10;1.77;;;16.00;62.00;;;;;;5044723;28;20847;-42
2023/08/07 02:24:42;;;;;;;2.73;1.63;;;16.00;62.30;;;;;;5047274;28;20189;-42
2023/08/07 02:27:07;;;;;;;2.03;1.63;;;16.00;62.50;;;;;;5048222;28;20193;-42
2023/08/07 02:29:36;;;;;;;2.90;1.97;;;16.10;62.00;;;;;;5050233;28;20201;-42
2023/08/07 02:32:03;;;;;;;2.50;1.57;;;16.00;61.70;;;;;;5045045;28;20650;-43
2023/08/07 02:34:29;;;;;;;4.07;2.37;;;16.10;61.90;;;;;;5041178;28;20828;-42
2023/08/07 02:36:55;;;;;;;2.57;1.53;;;16.00;61.90;;;;;;5046757;28;20446;-43
2023/08/07 02:39:20;;;;;;;2.67;2.07;;;16.00;62.70;;;;;;5048262;28;20447;-43
2023/08/07 02:41:46;;;;;;;2.43;1.20;;;15.90;63.40;;;;;;5041590;28;20203;-47
2023/08/07 02:44:11;;;;;;;2.40;1.80;;;15.70;63.60;;;;;;5041701;28;20566;-43
2023/08/07 02:46:37;;;;;;;6.30;1.90;;;15.60;64.20;;;;;;5043161;28;20189;-43
2023/08/07 02:49:03;;;;;;;4.03;1.83;;;15.80;64.50;;;;;;5047269;28;20192;-42
2023/08/07 02:51:28;;;;;;;3.80;2.03;;;15.80;63.30;;;;;;5050307;28;20203;-42
2023/08/07 02:53:54;;;;;;;1.97;1.60;;;15.80;63.10;;;;;;5044917;28;20287;-45
2023/08/07 02:56:19;;;;;;;4.57;1.80;;;15.80;63.40;;;;;;5045191;28;20192;-44
2023/08/07 02:58:45;;;;;;;4.23;2.03;;;15.80;63.10;;;;;;5045763;28;20205;-42
2023/08/07 03:01:11;;;;;;;3.37;2.17;;;16.00;63.00;;;;;;5049473;28;20204;-43
2023/08/07 03:03:37;;;;;;;3.67;1.60;;;16.20;62.20;;;;;;5051778;28;20220;-47
2023/08/07 03:06:03;;;;;;;1.57;1.33;;;16.00;61.70;;;;;;5049252;28;20449;-45
2023/08/07 03:08:29;;;;;;;3.27;1.47;;;15.90;62.20;;;;;;5048003;28;20550;-42
2023/08/07 03:10:57;;;;;;;2.83;1.90;;;15.90;62.30;;;;;;5046884;28;20430;-42
2023/08/07 03:13:23;;;;;;;3.90;1.70;;;16.10;61.40;;;;;;5052583;28;20197;-44
2023/08/07 03:15:50;;;;;;;6.00;2.03;;;16.10;60.90;;;;;;5050412;28;20463;-43
2023/08/07 03:18:18;;;;;;;2.70;2.27;;;16.20;60.90;;;;;;5047146;28;20455;-42
2023/08/07 03:20:44;;;;;;;2.10;1.53;;;16.40;60.70;;;;;;5046064;28;20439;-44
2023/08/07 03:23:11;;;;;;;2.70;1.90;;;16.30;59.90;;;;;;5050706;28;20520;-43
2023/08/07 03:25:36;;;;;;;4.23;1.70;;;16.20;60.00;;;;;;5042816;28;20926;-42
2023/08/07 03:28:02;;;;;;;3.30;1.63;;;16.20;60.70;;;;;;5045509;28;20448;-44
2023/08/07 03:30:28;;;;;;;2.90;1.73;;;16.00;61.10;;;;;;5049106;28;20242;-42
2023/08/07 03:32:54;;;;;;;2.43;1.80;;;16.00;61.50;;;;;;5043791;28;20200;-45
2023/08/07 03:35:19;;;;;;;4.73;2.30;;;15.80;61.20;;;;;;5049660;28;20235;-45
2023/08/07 03:37:45;;;;;;;2.50;1.80;;;15.80;61.20;;;;;;5047230;28;20203;-43
2023/08/07 03:40:11;;;;;;;2.03;1.43;;;15.80;61.80;;;;;;5047121;28;20625;-43
2023/08/07 03:42:36;;;;;;;3.17;1.43;;;16.00;61.60;;;;;;5043135;28;20216;-46
2023/08/07 03:45:02;;;;;;;2.13;1.60;;;15.90;61.10;;;;;;5049007;28;20436;-43
2023/08/07 03:47:28;;;;;;;2.67;1.90;;;15.90;61.20;;;;;;5046983;28;20717;-43
2023/08/07 03:49:53;;;;;;;3.83;2.10;;;15.80;61.10;;;;;;5046681;28;20200;-45
2023/08/07 03:52:19;;;;;;;3.57;2.10;;;16.00;61.30;;;;;;5045118;28;20246;-42
2023/08/07 03:54:45;;;;;;;2.97;1.40;;;16.00;61.10;;;;;;5051278;28;20185;-45
2023/08/07 03:57:10;;;;;;;4.63;1.97;;;16.00;62.00;;;;;;5047131;28;20598;-43
2023/08/07 03:59:36;;;;;;;3.00;1.93;;;16.00;60.60;;;;;;5042404;28;20193;-45
2023/08/07 04:02:02;;;;;;;3.17;1.93;;;16.00;60.60;;;;;;5044627;28;20200;-43
2023/08/07 04:04:28;;;;;;;4.60;2.00;;;16.10;60.80;;;;;;5040233;28;20197;-46
2023/08/07 04:06:53;;;;;;;3.00;1.90;;;16.30;60.60;;;;;;5040938;28;20280;-46
2023/08/07 04:09:19;;;;;;;3.27;1.70;;;16.40;60.20;;;;;;5040886;28;20319;-43
2023/08/07 04:11:44;;;;;;;1.83;1.40;;;16.50;59.80;;;;;;5037080;28;20188;-43
2023/08/07 04:14:11;;;;;;;4.93;1.90;;;16.40;59.60;;;;;;5042681;28;20524;-44
2023/08/07 04:16:37;;;;;;;2.67;1.63;;;16.40;60.00;;;;;;5040012;28;20558;-46
2023/08/07 04:19:02;;;;;;;3.00;1.60;;;16.50;60.00;;;;;;5036037;28;20435;-45
2023/08/07 04:21:29;;;;;;;12.10;2.17;;;16.40;59.80;;;;;;5043443;28;20916;-43
2023/08/07 04:23:55;;;;;;;3.03;1.83;;;16.20;60.10;;;;;;5052697;28;20610;-43
2023/08/07 04:26:20;;;;;;;3.70;1.90;;;16.00;60.30;;;;;;5052053;28;20443;-43
2023/08/07 04:28:46;;;;;;;4.10;1.83;;;16.30;60.30;;;;;;5049518;28;20293;-46
2023/08/07 04:31:12;;;;;;;4.83;1.67;;;16.20;61.20;;;;;;5046540;28;20197;-43
2023/08/07 04:33:38;;;;;;;2.23;1.77;;;16.30;60.00;;;;;;5053794;28;20225;-44
2023/08/07 04:36:04;;;;;;;3.80;1.90;;;16.10;60.00;;;;;;5048387;28;20446;-45
2023/08/07 04:38:29;;;;;;;5.40;1.40;;;16.20;60.20;;;;;;5050286;28;20212;-45
2023/08/07 04:40:55;;;;;;;4.13;1.70;;;16.20;60.00;;;;;;5052067;28;20197;-44
2023/08/07 04:43:21;;;;;;;2.70;1.87;;;16.20;60.50;;;;;;5047307;28;20691;-44
2023/08/07 04:45:46;;;;;;;3.10;1.70;;;16.10;60.40;;;;;;5049687;28;20196;-43
2023/08/07 04:48:12;;;;;;;1.90;1.50;;;16.10;60.70;;;;;;5040245;28;20645;-43
2023/08/07 04:50:38;;;;;;;3.70;1.80;;;16.20;60.70;;;;;;5050010;28;20196;-44
2023/08/07 04:53:07;;;;;;;7.20;2.60;;;16.20;60.20;;;;;;5046447;28;20283;-46
2023/08/07 04:55:33;;;;;;;2.40;1.83;;;16.30;60.30;;;;;;5054554;28;20207;-46
2023/08/07 04:57:58;;;;;;;6.30;2.13;;;16.40;60.20;;;;;;5052784;28;20542;-45
2023/08/07 05:00:24;;;;;;;3.33;1.60;;;16.50;59.70;;;;;;5054103;28;20189;-46
2023/08/07 05:02:51;;;;;;;1.93;1.77;;;16.40;59.60;;;;;;5052951;28;20220;-46
2023/08/07 05:05:20;;;;;;;3.33;2.10;;;16.60;59.90;;;;;;5053051;28;20987;-47
2023/08/07 05:07:46;;;;;;;3.97;1.80;;;16.60;59.50;;;;;;5052189;28;20443;-44
2023/08/07 05:10:12;;;;;;;6.50;2.10;;;16.70;59.50;;;;;;5054185;28;20497;-44
2023/08/07 05:12:37;;;;;;;2.20;1.67;;;17.00;59.10;;;;;;5050896;28;20451;-43
2023/08/07 05:15:03;;;;;;;3.83;2.13;;;16.80;58.90;;;;;;5054652;28;20283;-43
2023/08/07 05:17:29;;;;;;;5.07;2.90;;;16.80;59.40;;;;;;5052055;28;20192;-43
2023/08/07 05:19:54;;;;;;;3.90;1.60;;;16.80;59.20;;;;;;5047867;28;20208;-43
2023/08/07 05:22:20;;;;;;;6.93;2.43;;;16.70;60.10;;;;;;5048241;28;20676;-44
2023/08/07 05:24:45;;;;;;;4.63;2.63;;;16.70;60.30;;;;;;5051401;28;20196;-44
2023/08/07 05:27:11;;;;;;;3.97;1.90;;;16.80;60.20;;;;;;5048694;28;20195;-43
2023/08/07 05:29:43;;;;;;;4.03;1.53;;;16.90;60.20;;;;;;5046561;28;20193;-42
2023/08/07 05:32:10;;;;;;;8.57;2.30;;;17.00;59.90;;;;;;5046296;28;20545;-44
2023/08/07 05:34:36;;;;;;;4.07;1.97;;;17.10;59.60;;;;;;5044313;28;20838;-43
2023/08/07 05:37:01;;;;;;;5.40;1.80;;;17.10;59.70;;;;;;5049331;28;20450;-46
2023/08/07 05:39:27;;;;;;;2.80;1.57;;;17.20;59.40;;;;;;5043133;28;20191;-43
2023/08/07 05:41:54;;;;;;;5.13;1.97;;;17.10;59.40;;;;;;5045880;28;20200;-43
2023/08/07 05:44:20;;;;;;;4.33;1.73;;;17.10;59.50;;;;;;5032761;28;20235;-43
2023/08/07 05:46:45;;;;;;;8.37;2.00;;;17.10;60.20;;;;;;5043358;28;20447;-44
2023/08/07 05:49:11;;;;;;;2.60;1.90;;;17.20;59.80;;;;;;5040354;28;20188;-43
2023/08/07 05:51:36;;;;;;;3.77;1.70;;;17.30;59.60;;;;;;5049518;28;21771;-43
2023/08/07 05:54:02;;;;;;;5.30;2.20;;;17.60;59.10;;;;;;5050360;28;20201;-43
2023/08/07 05:56:28;;;;;;;2.20;2.00;;;17.70;58.50;;;;;;5048529;28;20269;-45
2023/08/07 05:58:53;;;;;;;2.27;1.50;;;17.60;58.20;;;;;;5047074;28;20284;-43
2023/08/07 06:01:19;;;;;;;1.57;1.47;;;17.40;58.10;;;;;;5046417;28;20196;-43
2023/08/07 06:03:44;;;;;;;12.17;2.27;;;17.30;58.40;;;;;;5046380;28;20334;-49
2023/08/07 06:06:10;;;;;;;5.23;2.00;;;17.20;58.80;;;;;;5043985;28;20193;-43
2023/08/07 06:08:36;;;;;;;2.20;1.80;;;17.20;58.60;;;;;;5050774;28;20200;-43
2023/08/07 06:11:05;;;;;;;4.70;2.00;;;17.10;58.70;;;;;;5049081;28;20228;-43
2023/08/07 06:13:31;;;;;;;7.60;2.10;;;17.20;58.50;;;;;;5044519;28;20192;-43
2023/08/07 06:15:56;;;;;;;5.03;1.70;;;17.20;58.30;;;;;;5048382;28;20431;-44
2023/08/07 06:18:22;;;;;;;3.87;2.33;;;17.20;58.30;;;;;;5051479;28;20196;-45
2023/08/07 06:20:47;;;;;;;2.87;1.73;;;17.30;58.30;;;;;;5050605;28;20224;-45
2023/08/07 06:23:13;;;;;;;2.17;1.63;;;17.20;59.00;;;;;;5052133;28;20231;-43
2023/08/07 06:25:38;;;;;;;2.00;1.73;;;17.40;58.70;;;;;;5046643;28;22413;-43
2023/08/07 06:28:04;;;;;;;3.87;1.80;;;17.10;58.40;;;;;;5051700;28;20192;-44
2023/08/07 06:30:32;;;;;;;1.90;1.70;;;17.40;58.70;;;;;;5034790;28;20231;-43
2023/08/07 06:32:58;;;;;;;4.23;2.03;;;17.20;58.40;;;;;;5044138;28;20203;-43
2023/08/07 06:35:23;;;;;;;2.27;1.90;;;17.40;58.80;;;;;;5050113;28;20471;-43
2023/08/07 06:37:49;;;;;;;3.70;2.00;;;17.50;58.80;;;;;;5050584;28;20197;-44
2023/08/07 06:40:15;;;;;;;3.13;1.70;;;17.70;58.40;;;;;;5043486;28;20200;-44
2023/08/07 06:42:40;;;;;;;3.40;2.00;;;17.90;58.30;;;;;;5051115;28;20307;-43
2023/08/07 06:45:06;;;;;;;4.10;1.93;;;18.00;57.90;;;;;;5046198;28;20243;-43
2023/08/07 06:47:32;;;;;;;4.90;1.90;;;18.10;57.90;;;;;;5043450;28;20227;-44
2023/08/07 06:49:57;;;;;;;5.50;2.10;;;18.30;57.70;;;;;;5042008;28;20439;-43
2023/08/07 06:52:23;;;;;;;4.03;1.80;;;18.10;57.10;;;;;;5042549;28;20207;-45
2023/08/07 06:54:49;;;;;;;2.60;1.60;;;18.00;57.60;;;;;;5039009;28;20188;-45
2023/08/07 06:57:15;;;;;;;2.53;1.70;;;18.20;57.70;;;;;;5037026;28;20686;-43
2023/08/07 06:59:40;;;;;;;2.87;2.20;;;18.60;57.20;;;;;;5041789;28;20435;-43
2023/08/07 07:02:06;;;;;;;2.33;1.57;;;18.70;56.40;;;;;;5029849;28;20199;-43
2023/08/07 07:04:32;;;;;;;3.90;1.80;;;18.70;55.60;;;;;;5023931;28;20197;-43
2023/08/07 07:06:58;;;;;;;4.90;1.80;;;18.30;55.30;;;;;;5045378;28;20656;-43
2023/08/07 07:09:24;;;;;;;3.47;1.60;;;18.10;56.00;;;;;;5046098;28;20465;-46
2023/08/07 07:11:50;;;;;;;2.60;1.83;;;18.00;55.60;;;;;;5048808;28;20192;-44
2023/08/07 07:14:15;;;;;;;3.00;2.10;;;18.10;55.70;;;;;;5038674;28;20192;-45
2023/08/07 07:16:42;;;;;;;3.87;1.80;;;18.20;55.70;;;;;;5042729;28;20251;-43
2023/08/07 07:19:09;;;;;;;1.50;1.40;;;18.10;55.50;;;;;;5041400;28;20227;-47
2023/08/07 07:21:35;;;;;;;1.80;1.40;;;18.20;55.00;;;;;;5045995;28;20534;-46
2023/08/07 07:24:01;;;;;;;4.10;2.00;;;18.30;54.40;;;;;;5049554;28;20573;-45
2023/08/07 07:26:27;;;;;;;5.23;2.00;;;18.50;55.00;;;;;;5045086;28;20189;-43
2023/08/07 07:28:52;;;;;;;2.27;1.53;;;18.50;54.00;;;;;;5049181;28;21048;-43
2023/08/07 07:31:18;;;;;;;1.57;1.20;;;18.50;54.60;;;;;;5036158;28;20194;-46
2023/08/07 07:33:44;;;;;;;2.20;1.40;;;18.30;53.00;;;;;;5030438;28;20259;-43
2023/08/07 07:36:16;;;;;;;1.43;1.30;;;18.20;52.90;;;;;;5032825;28;20272;-43
2023/08/07 07:38:43;;;;;;;3.40;1.50;;;18.30;53.00;;;;;;5039353;28;20188;-44
2023/08/07 07:41:11;;;;;;;5.07;2.00;;;18.10;53.10;;;;;;5044758;28;20803;-43
2023/08/07 07:43:37;;;;;;;2.13;1.53;;;17.90;54.30;;;;;;5033084;28;20496;-43
2023/08/07 07:46:02;;;;;;;5.27;2.13;;;18.00;54.50;;;;;;5037971;28;20505;-44
2023/08/07 07:48:28;;;;;;;2.87;1.47;;;17.80;54.40;;;;;;5043361;28;20501;-43
2023/08/07 07:51:03;;;;;;;1.90;1.60;;;17.80;54.90;;;;;;5037204;28;20199;-43
2023/08/07 07:53:30;;;;;;;3.10;1.57;;;17.70;55.10;;;;;;5036127;28;20207;-43
2023/08/07 07:55:56;;;;;;;1.93;1.33;;;17.80;55.60;;;;;;5041711;28;20446;-43
2023/08/07 07:58:22;;;;;;;2.30;1.97;;;17.80;55.50;;;;;;5042793;28;20443;-45
2023/08/07 08:00:47;;;;;;;5.33;1.77;;;17.80;55.90;;;;;;5052376;28;20197;-43
2023/08/07 08:03:13;;;;;;;5.20;2.10;;;17.80;55.90;;;;;;5044215;28;20630;-42
2023/08/07 08:05:39;;;;;;;5.10;1.90;;;17.80;56.10;;;;;;5046222;28;20200;-43
2023/08/07 08:08:07;;;;;;;5.50;2.10;;;18.10;56.40;;;;;;5042636;28;20541;-44
2023/08/07 08:10:33;;;;;;;4.50;1.90;;;18.30;55.90;;;;;;5031176;28;20201;-43
2023/08/07 08:12:59;;;;;;;1.50;1.40;;;18.30;55.80;;;;;;5042872;28;20449;-42
2023/08/07 08:15:25;;;;;;;2.43;1.33;;;18.50;55.30;;;;;;5044164;28;20442;-43
2023/08/07 08:17:50;;;;;;;2.43;1.80;;;18.50;54.60;;;;;;5047625;28;20347;-44
2023/08/07 08:20:18;;;;;;;4.00;1.90;;;18.40;53.60;;;;;;5054516;28;20208;-45
2023/08/07 08:22:46;;;;;;;1.83;1.47;;;18.50;53.90;;;;;;5053416;28;20217;-45
2023/08/07 08:25:13;;;;;;;1.80;1.50;;;18.40;52.80;;;;;;5056428;28;20446;-47
2023/08/07 08:27:39;;;;;;;4.30;1.93;;;18.30;52.60;;;;;;5054593;28;20568;-43
2023/08/07 08:30:06;;;;;;;3.30;1.60;;;18.40;52.60;;;;;;5053353;28;20429;-43
2023/08/07 08:32:31;;;;;;;4.70;1.57;;;18.20;53.00;;;;;;5054453;28;20510;-43
2023/08/07 08:34:57;;;;;;;2.97;1.63;;;18.10;53.10;;;;;;5049960;28;20561;-43
2023/08/07 08:37:23;;;;;;;2.30;1.70;;;18.00;53.20;;;;;;5051130;28;20275;-43
2023/08/07 08:39:48;;;;;;;1.93;1.33;;;18.00;53.60;;;;;;5046286;28;20246;-44
2023/08/07 08:42:18;;;;;;;4.63;1.80;;;18.20;54.10;;;;;;5054028;28;20268;-43
2023/08/07 08:44:52;;;;;;;4.13;1.70;;;18.40;53.50;;;;;;5053561;28;20439;-43
2023/08/07 08:47:18;;;;;;;2.10;1.37;;;18.50;53.30;;;;;;5046255;28;20458;-43
2023/08/07 08:50:04;;;;;;;1.87;1.67;;;18.50;53.40;;;;;;5049210;28;20501;-47
2023/08/07 08:52:31;;;;;;;2.20;1.63;;;18.60;53.30;;;;;;5048804;28;20207;-43
2023/08/07 08:54:58;;;;;;;3.80;1.80;;;18.80;52.50;;;;;;5054184;28;20435;-43
2023/08/07 08:57:25;;;;;;;3.83;1.90;;;18.90;52.50;;;;;;5051874;28;20442;-43
2023/08/07 08:59:51;;;;;;;2.17;1.70;;;18.80;51.70;;;;;;5053996;28;20489;-44
2023/08/07 09:02:17;;;;;;;1.33;1.23;;;18.80;52.00;;;;;;5038250;28;20439;-44
2023/08/07 09:04:44;;;;;;;2.07;1.47;;;18.80;51.30;;;;;;5039601;28;20466;-44
2023/08/07 09:07:12;;;;;;;3.30;1.60;;;19.00;52.20;;;;;;5041631;28;20200;-44
2023/08/07 09:09:38;;;;;;;2.27;1.40;;;19.00;50.90;;;;;;5044813;28;20475;-44
2023/08/07 09:12:06;;;;;;;3.00;1.80;;;19.10;50.50;;;;;;5040157;28;20446;-47
2023/08/07 09:14:33;;;;;;;1.93;1.83;;;18.80;49.90;;;;;;5045141;28;21420;-43
2023/08/07 09:17:01;;;;;;;1.73;1.40;;;19.10;49.90;;;;;;5036015;28;20523;-44
2023/08/07 09:19:27;;;;;;;2.87;1.60;;;19.10;49.70;;;;;;5034756;28;20492;-46
2023/08/07 09:21:53;;;;;;;1.33;1.23;;;19.30;50.10;;;;;;5049756;28;20451;-44
2023/08/07 09:24:21;;;;;;;1.60;1.50;;;19.40;49.70;;;;;;5045481;28;20949;-48
2023/08/07 09:26:47;;;;;;;1.40;1.20;;;19.50;49.80;;;;;;5038605;28;20866;-44
2023/08/07 09:29:13;;;;;;;1.97;1.40;;;19.30;49.60;;;;;;5040550;28;20447;-44
2023/08/07 09:31:42;;;;;;;2.83;1.30;;;19.20;49.60;;;;;;5036902;28;20448;-45
2023/08/07 09:34:08;;;;;;;1.57;1.27;;;19.30;50.10;;;;;;5044055;28;20537;-45
2023/08/07 09:36:34;;;;;;;1.60;1.47;;;19.40;50.00;;;;;;5049882;28;20474;-45
2023/08/07 09:39:04;;;;;;;1.30;1.20;;;19.40;50.10;;;;;;5048363;28;20270;-46
2023/08/07 09:41:32;;;;;;;1.63;1.10;;;19.70;50.00;;;;;;5048462;28;20857;-47
2023/08/07 09:43:58;;;;;;;1.40;1.30;;;19.90;49.50;;;;;;5047389;28;20527;-46
2023/08/07 09:46:25;;;;;;;2.07;1.30;;;19.80;49.30;;;;;;5043857;28;20474;-46
2023/08/07 09:48:51;;;;;;;2.03;1.50;;;19.90;49.00;;;;;;5042966;28;20193;-46
2023/08/07 09:51:17;;;;;;;2.33;1.13;;;20.10;49.30;;;;;;5036134;28;20451;-47
2023/08/07 09:53:42;;;;;;;3.00;1.67;;;20.10;48.70;;;;;;5043693;28;20193;-46
2023/08/07 09:56:08;;;;;;;2.00;1.20;;;20.00;47.90;;;;;;5047784;28;20201;-46
2023/08/07 09:58:34;;;;;;;1.43;1.33;;;20.20;49.30;;;;;;5046846;28;20284;-46
2023/08/07 10:01:04;;;;;;;1.63;1.53;;;20.30;49.00;;;;;;5044589;28;20526;-46
2023/08/07 10:03:30;;;;;;;1.60;1.30;;;20.30;48.60;;;;;;5047494;28;20224;-50
2023/08/07 10:05:56;;;;;;;4.63;2.03;;;20.20;48.80;;;;;;5047150;28;20961;-46
2023/08/07 10:08:22;;;;;;;2.77;1.53;;;20.30;49.80;;;;;;5048571;28;20193;-48
2023/08/07 10:10:48;;;;;;;5.20;1.50;;;20.50;47.40;;;;;;5046146;28;20450;-47
2023/08/07 10:13:14;;;;;;;3.17;1.90;;;20.50;47.80;;;;;;5048874;28;20189;-45
2023/08/07 10:15:41;;;;;;;2.60;1.63;;;20.50;47.40;;;;;;5044647;28;20874;-46
2023/08/07 10:18:08;;;;;;;2.00;1.40;;;20.50;47.50;;;;;;5045872;28;20443;-46
2023/08/07 10:20:34;;;;;;;1.60;1.50;;;20.70;47.50;;;;;;5045951;28;21006;-46
2023/08/07 10:23:10;;;;;;;2.40;1.40;;;20.60;47.50;;;;;;5050623;28;20490;-45
2023/08/07 10:25:40;;;;;;;3.53;1.40;;;21.10;48.50;;;;;;5036752;28;20207;-46
2023/08/07 10:28:11;;;;;;;2.40;1.53;;;21.60;48.00;;;;;;5049564;28;20489;-46
2023/08/07 10:30:39;;;;;;;3.33;1.70;;;21.90;46.80;;;;;;5045201;28;20451;-46
2023/08/07 10:33:07;;;;;;;4.07;1.60;;;21.60;44.60;;;;;;5037007;28;20450;-47
2023/08/07 10:35:33;;;;;;;1.40;1.30;;;21.30;44.90;;;;;;5038805;28;20450;-46
2023/08/07 10:38:10;;;;;;;1.43;1.27;;;21.20;44.10;;;;;;5048385;28;20455;-46
2023/08/07 10:41:09;;;;;;;2.70;1.33;;;21.00;44.60;;;;;;5047465;28;20558;-47
2023/08/07 10:43:42;;;;;;;2.50;1.70;;;21.20;45.70;;;;;;5046028;28;21091;-46
2023/08/07 10:46:21;;;;;;;3.17;2.00;;;21.10;45.80;;;;;;5046291;28;20453;-48
2023/08/07 10:48:53;;;;;;;1.60;1.30;;;21.40;46.00;;;;;;5046650;28;20965;-46
2023/08/07 10:51:19;;;;;;;3.57;1.67;;;21.20;45.60;;;;;;5044132;28;20949;-46
2023/08/07 10:53:47;;;;;;;3.00;1.60;;;21.30;45.60;;;;;;5040812;28;20446;-46
2023/08/07 10:56:18;;;;;;;3.63;1.37;;;21.50;45.70;;;;;;5050621;28;20457;-45
2023/08/07 10:58:50;;;;;;;1.40;1.23;;;21.40;44.90;;;;;;5047803;28;20451;-45
2023/08/07 11:01:34;;;;;;;2.90;1.67;;;21.30;45.10;;;;;;5051047;28;20497;-46
2023/08/07 11:04:05;;;;;;;2.17;1.70;;;21.40;46.30;;;;;;5050495;28;20487;-45
2023/08/07 11:06:33;;;;;;;2.93;1.50;;;21.40;45.30;;;;;;5051168;28;20477;-46
2023/08/07 11:09:04;;;;;;;1.70;1.60;;;21.30;46.00;;;;;;5049916;28;20431;-46
2023/08/07 11:11:47;;;;;;;1.60;1.40;;;21.40;46.20;;;;;;5047975;28;20448;-46
2023/08/07 11:14:15;;;;;;;2.33;1.70;;;21.50;46.00;;;;;;5043372;28;20443;-46
2023/08/07 11:16:41;;;;;;;3.50;1.73;;;21.20;45.80;;;;;;5048799;28;20447;-46
2023/08/07 11:19:08;;;;;;;6.23;1.83;;;21.10;45.40;;;;;;5046400;28;20446;-48
2023/08/07 11:21:34;;;;;;;2.40;1.70;;;21.00;45.20;;;;;;5044399;28;20440;-46
2023/08/07 11:24:00;;;;;;;2.30;1.27;;;21.20;45.30;;;;;;5042361;28;20486;-46
2023/08/07 11:26:27;;;;;;;2.57;1.47;;;21.20;45.00;;;;;;5051221;28;20439;-46
2023/08/07 11:28:54;;;;;;;1.87;1.67;;;21.10;44.70;;;;;;5045992;28;20473;-46
2023/08/07 11:31:19;;;;;;;2.50;1.67;;;21.20;45.30;;;;;;5046994;28;20443;-46
2023/08/07 11:33:45;;;;;;;2.10;1.60;;;21.30;45.40;;;;;;5048390;28;20486;-47
2023/08/07 11:36:12;;;;;;;3.00;1.90;;;21.50;45.60;;;;;;5045857;28;20267;-46
2023/08/07 11:38:42;;;;;;;2.10;1.67;;;21.20;44.70;;;;;;5048687;28;20192;-46
2023/08/07 11:41:08;;;;;;;1.83;1.50;;;20.80;45.50;;;;;;5043773;28;20447;-46
2023/08/07 11:43:35;;;;;;;3.67;1.67;;;20.90;46.10;;;;;;5037074;28;20492;-50
2023/08/07 11:46:03;;;;;;;3.67;1.70;;;21.00;46.50;;;;;;5040561;28;20846;-46
2023/08/07 11:48:29;;;;;;;1.83;1.50;;;21.10;46.00;;;;;;5044213;28;20439;-46
2023/08/07 11:50:56;;;;;;;2.40;1.90;;;21.30;46.30;;;;;;5037590;28;20994;-46
2023/08/07 11:53:24;;;;;;;3.27;2.03;;;21.40;46.10;;;;;;5035110;28;20463;-45
2023/08/07 11:56:01;;;;;;;1.70;1.60;;;21.50;45.60;;;;;;5036650;28;20455;-45
2023/08/07 11:58:33;;;;;;;2.07;1.97;;;21.20;45.70;;;;;;5030433;28;20961;-47
2023/08/07 12:00:59;;;;;;;1.77;1.43;;;21.00;46.30;;;;;;5042015;28;20439;-45
2023/08/07 12:03:29;;;;;;;4.73;1.90;;;21.20;47.00;;;;;;5050070;28;21016;-44
2023/08/07 12:05:57;;;;;;;1.70;1.50;;;21.20;46.50;;;;;;5030691;28;20661;-45
2023/08/07 12:08:22;;;;;;;2.63;1.43;;;20.70;46.70;;;;;;5037804;28;20443;-46
2023/08/07 12:10:54;;;;;;;2.07;1.97;;;20.50;48.10;;;;;;5050205;28;20434;-46
2023/08/07 12:13:27;;;;;;;2.80;1.80;;;20.40;48.10;;;;;;5049362;28;20548;-46
2023/08/07 12:15:56;;;;;;;1.73;1.60;;;20.40;48.70;;;;;;5043387;28;20459;-48
2023/08/07 12:18:23;;;;;;;2.13;1.63;;;20.50;49.10;;;;;;5040927;28;20450;-46
2023/08/07 12:20:51;;;;;;;2.40;1.83;;;20.50;48.20;;;;;;5049197;28;20439;-47
2023/08/07 12:23:18;;;;;;;2.27;1.90;;;20.60;49.90;;;;;;5038400;28;20482;-46
2023/08/07 12:25:44;;;;;;;1.67;1.57;;;20.60;50.80;;;;;;5039697;28;20447;-46
2023/08/07 12:28:10;;;;;;;2.10;1.90;;;20.80;51.40;;;;;;5040558;28;20509;-48
2023/08/07 12:30:40;;;;;;;3.93;1.87;;;20.80;50.60;;;;;;5043930;28;20517;-46
2023/08/07 12:33:07;;;;;;;2.27;1.80;;;20.90;50.10;;;;;;5045892;28;20475;-46
2023/08/07 12:35:34;;;;;;;1.90;1.80;;;21.00;49.30;;;;;;5047658;28;21249;-46
2023/08/07 12:38:01;;;;;;;2.60;2.03;;;20.90;48.80;;;;;;5046018;28;20514;-46
2023/08/07 12:40:27;;;;;;;4.10;2.07;;;20.90;48.90;;;;;;5048944;28;20450;-47
2023/08/07 12:42:53;;;;;;;2.30;1.70;;;20.70;49.40;;;;;;5045429;28;20481;-46
2023/08/07 12:45:19;;;;;;;4.27;1.93;;;20.60;49.50;;;;;;5049164;28;20200;-45
2023/08/07 12:47:47;;;;;;;2.17;1.87;;;20.70;49.70;;;;;;5047345;28;20231;-46